Tiempo atmosférico en la estación meteorológica de Estaca De Bares, A Coruña (80 m.)



Fecha
DESCASC
Temp. máxima en grados centígrados (hora)
DESCASC
Temp. mínima en grados centígrados (hora)
DESCASC
Temp. media en grados centígrados
DESCASC
Racha de viento máxima en m/sg (hora)
DESCASC
Velocidad máxima media en intervalos de 10 minutos(hora)
DESCASC
Precipitaciones diarias en mm
DESCASC
Precipitaciones de 00:00 a 06:00 en mm
DESCASC
Precipitaciones de 06:00 a 12:00 en mm
DESCASC
Precipitaciones de 12:00 a 18:00 en mm
DESCASC
Precipitaciones de 18:00 a 24:00 en mm
DESCASC
25-04-2019 13.6 (13:00) 7.3 (03:40) 10.5 -- (--) -- (--) 5.2 2.2 0.4 2.2 0.4
24-04-2019 14 (17:00) 7.8 (23:59) 10.9 -- (--) -- (--) 7.8 0.2 0 3.6 4
23-04-2019 13.4 (12:10) 8.5 (15:30) 10.9 19.44 (13:20) 15.56 (20:00) 4.8 0.2 0 4.6 0
22-04-2019 16.5 (14:40) 10.7 (00:00) 13.6 11.67 (23:20) 9.44 (02:30) 2.2 0 0 0 2.2
21-04-2019 18.6 (17:00) 11.3 (00:00) 15 9.17 (23:30) 7.5 (23:30) 0 0 0 0 0
20-04-2019 16.7 (16:10) 11.6 (00:00) 14.2 10.28 (10:30) 8.33 (10:30) 0 0 0 0 0
19-04-2019 15.5 (17:10) 12 (00:00) 13.8 14.17 (09:40) 10 (09:40) 4.8 1.2 3.6 0 0
18-04-2019 16.7 (16:20) 11.1 (00:00) 13.9 10.28 (20:10) 6.94 (22:20) 2 2 0 0 0
17-04-2019 16.2 (13:00) 11.4 (00:00) 13.8 15.28 (00:30) 11.39 (00:10) 11.8 0 0 0.4 11.4
16-04-2019 16.1 (14:20) 10 (00:00) 13.1 15.56 (22:50) 11.11 (19:10) 0 0 0 0 0
15-04-2019 17.5 (06:20) 11.5 (00:00) 14.5 24.72 (13:00) 17.78 (13:00) 5.4 0 5.4 0 0
14-04-2019 21.7 (15:00) 14.9 (00:00) 18.3 12.22 (21:40) 8.61 (03:30) 0.2 0 0 0 0.2
13-04-2019 17.9 (14:10) 11.3 (00:00) 14.6 7.22 (14:50) 5.28 (17:00) 0 0 0 0 0
12-04-2019 14 (17:00) 8.8 (00:00) 11.4 12.5 (14:20) 9.44 (12:50) 0 0 0 0 0
11-04-2019 16.4 (13:50) 9.2 (00:00) 12.8 9.17 (21:10) 5.83 (20:40) 0 0 0 0 0
10-04-2019 15.5 (15:00) 9.7 (00:00) 12.6 25.83 (02:20) 20.28 (01:40) 8.4 8.2 0.2 0 0
09-04-2019 13.4 (16:10) 8.5 (00:00) 10.9 26.11 (15:00) 20.83 (19:10) 5.2 2.2 1.8 0.4 0.8
08-04-2019 17.1 (15:40) 9.3 (00:00) 13.2 31.94 (16:20) 19.44 (16:20) 4.6 3.6 0 0.2 0.8
07-04-2019 16 (14:30) 7.6 (00:00) 11.8 17.22 (07:30) 13.61 (06:10) 2.2 0 0 1.2 1
06-04-2019 11.7 (15:10) 5.9 (00:00) 8.8 23.33 (18:20) 18.06 (18:20) 10.6 2.4 4.2 0.6 3.4
05-04-2019 11.8 (16:00) 6.4 (00:00) 9.1 23.61 (12:50) 18.61 (12:50) 2 0 0 0.8 1.2
04-04-2019 11.7 (13:30) 6.6 (00:00) 9.1 27.78 (14:40) 21.11 (14:40) 3.8 1.8 1.2 0.4 0.4
03-04-2019 11.5 (15:00) 6.1 (00:00) 8.8 23.33 (12:10) 13.33 (10:10) 5 0.8 1.2 2.6 0.4
02-04-2019 13.9 (15:00) 10.1 (00:00) 12 14.17 (17:00) 9.44 (22:40) 0 0 0 0 0
01-04-2019 15.7 (16:10) 10.7 (00:00) 13.2 10.28 (04:50) 8.33 (05:00) 0 0 0 0 0
31-03-2019 15.4 (15:10) 11 (00:00) 13.2 12.78 (16:20) 8.06 (14:00) 0 0 0 0 0
30-03-2019 15 (12:30) 9.6 (00:00) 12.3 10.28 (16:40) 8.33 (17:10) 0 0 0 0 0
29-03-2019 14 (15:00) 10.5 (00:00) 12.3 18.33 (00:50) 14.44 (03:10) 0 0 0 0 0
28-03-2019 14 (12:30) 10.4 (00:00) 12.2 20.83 (00:20) 14.44 (04:00) 0 0 0 0 0
27-03-2019 13.6 (13:30) 10.3 (00:00) 12 25 (03:20) 14.72 (01:40) 0 0 0 0 0

Gráficas

Temp. máximas Temp. mínimas Temp. medias Precipitaciones Rachas de viento máximas Velocidades máximas media en intervalos de 10 minutos

Datos horarios

Fecha y hora oficial Temperatura (ºC) Velocidad del viento (km/h) Dirección del viento Racha (km/h) Dirección de racha Precipitación (mm) Presión (hPa) Tendencia (hPa) Humedad (%)
2019-04-25 23:00:00 11.7 66 Oeste 89 Oeste 0 1000.5 3.4 82
2019-04-25 22:00:00 11.7 73 Oeste 87 Oeste 0 998.6 3 81
2019-04-25 21:00:00 11.3 59 Oeste 69 Oeste 0 997.6 4.4 79
2019-04-25 20:00:00 11.4 43 Oeste 81 Oeste 0.2 997.1 4.2 77
2019-04-25 19:00:00 12.1 67 Oeste 95 Oeste 0 995.6 3.9 70
2019-04-25 18:00:00 13 80 Oeste 95 Oeste 0.2 993.2 2.9 69
2019-04-25 17:00:00 10.5 54 Oeste -- -- 0.6 992.9 2.6 80
2019-04-25 16:00:00 12 63 Oeste 107 Sudoeste 0 991.7 1.6 72
2019-04-25 15:00:00 8.8 77 Oeste -- -- 1.4 990.3 0.5 80
2019-04-25 14:00:00 13.5 57 Oeste 100 Sudoeste 0 990.3 0.9 62
2019-04-25 13:00:00 12.7 65 Oeste 93 Oeste 0 990.1 0.4 61
2019-04-25 12:00:00 12.5 72 Oeste 92 Sudoeste 0 989.8 0.9 65
2019-04-25 11:00:00 10.4 66 Oeste 96 Sudoeste 0 989.4 1 72
2019-04-25 10:00:00 8.6 51 Sudoeste -- -- 0.2 989.7 2.3 80
2019-04-25 09:00:00 9.1 62 Oeste 80 Sudoeste 0 988.9 1.8 78
2019-04-25 08:00:00 8.1 54 Sudoeste 88 Oeste 0 988.4 1.7 78
2019-04-25 07:00:00 7.8 64 Oeste 89 Oeste 0.2 987.4 0.8 80
2019-04-25 06:00:00 7.8 58 Sudoeste -- -- 0.2 987.1 -0.8 81
2019-04-25 05:00:00 8.2 72 Oeste 91 Oeste 0.4 986.7 -0.5 81
2019-04-25 04:00:00 7.6 50 Oeste 78 Oeste 0.4 986.6 0.3 82
2019-04-25 03:00:00 7.9 -- -- -- -- 1.2 987.9 2 83
2019-04-25 02:00:00 8.8 44 Oeste 75 Oeste 0 987.2 1.2 79
2019-04-25 01:00:00 8.3 58 Sudoeste 87 Sudoeste 0 986.3 1.6 77
2019-04-25 00:00:00 7.9 53 Oeste 96 Sudoeste 0.2 985.9 1.6 81
2019-04-24 23:00:00 8.4 50 Oeste 102 Oeste 0.2 986 2.8 82
2019-04-24 22:00:00 9 68 Oeste -- -- 1.4 984.7 1.3 79
2019-04-24 21:00:00 10.1 54 Oeste 79 Oeste 0 984.3 1.6 78
2019-04-24 20:00:00 10 61 Oeste 78 Sudoeste 0 983.2 1.9 82
2019-04-24 19:00:00 8.3 52 Oeste -- -- 2.2 983.4 2.1 84
2019-04-24 18:00:00 9.5 54 Oeste 94 Oeste 2.4 982.7 3.1 83
2019-04-24 17:00:00 13.8 60 Oeste 80 Oeste 0 981.3 1.7 63
2019-04-24 16:00:00 11.8 63 Oeste 101 Oeste 0 981.3 0.3 78
2019-04-24 15:00:00 13 75 Oeste 101 Oeste 0 979.6 -1.6 66
2019-04-24 14:00:00 11.5 56 Oeste 75 Oeste 1.2 979.6 -1.8 82
2019-04-24 13:00:00 10.5 12 Este 19 Este 0 981 -1.1 74
2019-04-24 12:00:00 10 14 Sudoeste 35 Sudoeste 0 981.2 -1.3 75
2019-04-24 11:00:00 9.9 9 Sudeste 28 Sur 0 981.4 -1.5 72
2019-04-24 10:00:00 9.9 12 Sur 31 Sur 0 982.1 -1.3 63
2019-04-24 09:00:00 8.9 13 Sur 35 Sudoeste 0 982.5 -1.2 66
2019-04-24 08:00:00 8.2 13 Sudoeste 34 Sudoeste 0 982.9 -2 72
2019-04-24 07:00:00 8.3 23 Sudoeste 54 Sudoeste 0 983.4 -1.5 69
2019-04-24 06:00:00 8.4 33 Sudoeste 58 Sudoeste 0 983.7 -2.2 67
2019-04-24 05:00:00 8.4 17 Sudoeste 54 Sudoeste 0 984.9 -1.7 68
2019-04-24 04:00:00 8.5 35 Sudoeste 49 Sudoeste 0 984.9 -1.8 68
2019-04-24 03:00:00 8.5 31 Sudoeste 48 Sudoeste 0 985.9 -1 66
2019-04-24 02:00:00 8.8 18 Sudoeste 44 Sudoeste 0 986.6 -0.4 67
2019-04-24 01:00:00 9 33 Sudoeste 48 Sudoeste 0.2 986.7 0.2 71
2019-04-24 00:00:00 9 24 Sudoeste 46 Oeste 0 986.9 1.3 71
2019-04-23 23:00:00 9.6 26 Sudoeste 40 Sudoeste 0 987 2.2 69
2019-04-23 22:00:00 10.2 34 Oeste 57 Oeste 0 986.5 1.9 67
2019-04-23 21:00:00 11.3 47 Oeste 63 Oeste 0 985.6 1.2 62
2019-04-23 20:00:00 11.7 56 Oeste 69 Oeste 0 984.8 0.2 64
2019-04-23 19:00:00 12.4 50 Oeste 63 Oeste 0 984.6 -0.3 65
2019-04-23 18:00:00 12.2 50 Oeste 60 Oeste 0 984.4 0.6 70
2019-04-23 17:00:00 10.3 42 Oeste 54 Sudoeste 0.6 984.6 1.5 82
2019-04-23 16:00:00 8.6 37 Oeste -- -- 2.8 984.9 1.9 85
2019-04-23 15:00:00 9 51 Oeste 65 Oeste 1.2 983.8 1.4 82
2019-04-23 14:00:00 12.7 46 Oeste 70 Oeste 0 983.1 1 61
2019-04-23 13:00:00 12.9 45 Oeste 66 Oeste 0 983 0.5 64
2019-04-23 12:00:00 12.9 40 Sudoeste 59 Oeste 0 982.4 0.3 61
2019-04-23 11:00:00 11.2 40 Oeste 59 Sudoeste 0 982.1 0.6 62
2019-04-23 10:00:00 11.5 20 Oeste 39 Sudoeste 0 982.5 1.8 64
2019-04-23 09:00:00 10 24 Oeste 40 Oeste 0 982.1 0.9 68
2019-04-23 08:00:00 9.7 20 Sudoeste 57 Sudoeste 0 981.5 0 64
2019-04-23 07:00:00 9.7 44 Sudoeste 65 Sudoeste 0 980.7 -1.2 68
2019-04-23 06:00:00 9.7 41 Sudoeste 62 Sudoeste 0 981.2 -1.4 72
2019-04-23 05:00:00 10 37 Sudoeste 52 Sudoeste 0 981.5 -1.4 72
2019-04-23 04:00:00 10.2 26 Sur 45 Sur 0 981.9 -1.8 72
2019-04-23 03:00:00 10.3 28 Sudoeste 43 Sudoeste 0 982.6 -1.2 72
2019-04-23 02:00:00 10.5 30 Sudoeste 41 Sudoeste 0.2 982.9 -1.1 72
2019-04-23 01:00:00 10.1 9 Sur 47 Oeste 0 983.7 -0.4 82
2019-04-23 00:00:00 10.7 32 Oeste 42 Oeste 0.8 983.8 -0.3 87
2019-04-22 23:00:00 12.3 16 Sudoeste 31 Sudoeste 0.8 984 -0.1 86
2019-04-22 22:00:00 12.5 17 Sudeste 24 Sudeste 0.6 984.1 -0.4 87
2019-04-22 21:00:00 12.8 11 Sudeste 14 Sudeste 0 984.1 -0.6 85
2019-04-22 20:00:00 13 6 Este 14 Nordeste 0 984.1 -1.4 85
2019-04-22 19:00:00 13.2 11 Nordeste 17 Este 0 984.5 -1.9 83
2019-04-22 18:00:00 13.2 7 Nordeste 18 Oeste 0 984.7 -2.5 82
2019-04-22 17:00:00 13.8 12 Noroeste 34 Noroeste 0 985.5 -2.5 80
2019-04-22 16:00:00 13.7 17 Noroeste 34 Noroeste 0 986.4 -2.4 79
2019-04-22 15:00:00 15.5 13 Noroeste 21 Oeste 0 987.2 -2.6 68
2019-04-22 14:00:00 15.2 9 Este 20 Sudeste 0 988 -2.4 69
2019-04-22 13:00:00 14.9 14 Este 23 Este 0 988.8 -2.5 68
2019-04-22 12:00:00 14.9 17 Este 28 Este 0 989.8 -2.2 72
2019-04-22 11:00:00 13.7 23 Sudeste 31 Este 0 990.4 -2.2 71
2019-04-22 10:00:00 13.1 22 Sudeste 33 Sudeste 0 991.3 -1.7 75
2019-04-22 09:00:00 12.2 19 Sudeste 27 Sudeste 0 992 -2 81
2019-04-22 08:00:00 10.8 18 Sudeste 24 Sudeste 0 992.6 -2.4 84
2019-04-22 07:00:00 10.8 16 Sudeste 27 Sudeste 0 993 -2.9 85
2019-04-22 06:00:00 11.5 19 Sudeste 27 Sudeste 0 994 -3.2 87
2019-04-22 05:00:00 11.4 18 Sudeste 30 Sudeste 0 995 -3.2 86
2019-04-22 04:00:00 11.7 23 Sudeste 31 Sudeste 0 995.9 -3.2 87
2019-04-22 03:00:00 11.9 23 Sudeste 40 Este 0 997.2 -2.8 88
2019-04-22 02:00:00 12.3 30 Sudeste 38 Sudeste 0 998.2 -2.4 88
2019-04-22 01:00:00 12.4 24 Sudeste 36 Sudeste 0 999.1 -1.8 88
2019-04-22 00:00:00 12.9 24 Sudeste 33 Sudeste 0 1000 -1.1 87
2019-04-21 23:00:00 13.4 17 Sudeste 25 Sudeste 0 1000.6 -0.7 85
2019-04-21 22:00:00 13.5 15 Este 21 Sudeste 0 1000.9 -0.8 84
2019-04-21 21:00:00 14 11 Este 19 Este 0 1001.1 -0.8 84
2019-04-21 20:00:00 14.3 11 Nordeste 19 Nordeste 0 1001.3 -1.2 84
2019-04-21 19:00:00 15.9 6 Norte 17 Norte 0 1001.7 -1.9 79
2019-04-21 18:00:00 17.9 5 Norte 16 Norte 0 1001.9 -2.6 76
2019-04-21 17:00:00 18.2 7 Este 24 Sudeste 0 1002.5 -2.6 60
2019-04-21 16:00:00 16.7 15 Este 26 Sudeste 0 1003.6 -2.2 69
2019-04-21 15:00:00 17.1 4 Este 18 Norte 0 1004.5 -1.8 73
2019-04-21 14:00:00 16.6 5 Oeste 11 Noroeste 0 1005.1 -1.5 74
2019-04-21 13:00:00 15.5 3 Norte 10 Oeste 0 1005.8 -1 75
2019-04-21 12:00:00 15.2 4 Oeste 7 Oeste 0 1006.3 -0.9 77
2019-04-21 11:00:00 13.6 5 Nordeste 13 Este 0 1006.6 -0.7 82
2019-04-21 10:00:00 13.2 8 Este 13 Este 0 1006.8 -0.4 84
2019-04-21 09:00:00 12.1 6 Este 17 Este 0 1007.2 -0.3 88
2019-04-21 08:00:00 11.4 9 Sudeste 16 Sudeste 0 1007.3 -0.6 88
2019-04-21 07:00:00 11.5 12 Sudeste 23 Sudeste 0 1007.2 -1 87
2019-04-21 06:00:00 11.8 16 Este 24 Sudeste 0 1007.5 -1.5 87
2019-04-21 05:00:00 11.9 13 Este 23 Sudeste 0 1007.9 -1.6 86
2019-04-21 04:00:00 12.4 15 Este 25 Este 0 1008.2 -1.9 86
2019-04-21 03:00:00 12.7 14 Este 22 Este 0 1009 -1.4 85
2019-04-21 02:00:00 12.8 14 Este 23 Este 0 1009.5 -1.2 85
2019-04-21 01:00:00 13.1 14 Este 25 Este 0 1010.1 -0.5 86
2019-04-21 00:00:00 13.5 17 Este 28 Este 0 1010.4 0.2 88
2019-04-20 23:00:00 13.6 17 Este 24 Este 0 1010.7 0.5 89
2019-04-20 22:00:00 13.7 17 Este 27 Este 0 1010.6 0.2 87
2019-04-20 21:00:00 13.8 15 Este 27 Este 0 1010.2 -0.4 86
2019-04-20 20:00:00 14.4 15 Este 23 Este 0 1010.2 -0.9 83
2019-04-20 19:00:00 15.8 14 Este 20 Este 0 1010.4 -1.1 78
2019-04-20 18:00:00 16 15 Este 22 Este 0 1010.6 -1 76
2019-04-20 17:00:00 16.4 18 Este 23 Este 0 1011.1 -1.2 77
2019-04-20 16:00:00 16.5 18 Este 24 Este 0 1011.5 -1.2 77
2019-04-20 15:00:00 16.2 17 Este 26 Este 0 1011.6 -1.2 77
2019-04-20 14:00:00 15.9 19 Este 28 Este 0 1012.3 -0.6 77
2019-04-20 13:00:00 15.5 20 Este 36 Este 0 1012.7 -0.5 75
2019-04-20 12:00:00 15.3 22 Este 35 Sudeste 0 1012.8 -0.2 75
2019-04-20 11:00:00 14 26 Sudeste 37 Sudeste 0 1012.9 0.1 80
2019-04-20 10:00:00 12.9 25 Sudeste 32 Sudeste 0 1013.2 0.6 86
2019-04-20 09:00:00 12.2 25 Este 36 Sudeste 0 1013 0.2 88
2019-04-20 08:00:00 11.8 19 Este 27 Este 0 1012.8 0.4 89
2019-04-20 07:00:00 11.9 18 Este 24 Este 0 1012.6 0 90
2019-04-20 06:00:00 11.6 15 Este 28 Sudeste 0 1012.8 -0.5 88
2019-04-20 05:00:00 12.2 19 Sudeste 28 Sudeste 0 1012.4 -1.2 87
2019-04-20 04:00:00 12.5 22 Sudeste 27 Sudeste 0 1012.6 -1.1 87
2019-04-20 03:00:00 12.6 20 Este 32 Este 0 1013.3 -0.2 84
2019-04-20 02:00:00 12.6 20 Este 31 Sudeste 0 1013.6 0.3 82
2019-04-20 01:00:00 12.9 25 Este 35 Sudeste 0 1013.7 1 80
2019-04-20 00:00:00 13.1 24 Sudeste 37 Este 0 1013.5 1.5 77
2019-04-19 23:00:00 13.2 27 Sudeste 42 Sudeste 0 1013.3 1.7 79
2019-04-19 22:00:00 13 23 Sudeste 46 Este 0 1012.7 1.9 86
2019-04-19 21:00:00 13.3 31 Este 48 Nordeste 0 1012 1.5 87
2019-04-19 20:00:00 13.8 24 Este 33 Nordeste 0 1011.6 1.1 87
2019-04-19 19:00:00 14.6 17 Este 28 Este 0 1010.8 0.5 85
2019-04-19 18:00:00 14.8 20 Este 33 Este 0 1010.5 0.7 84
2019-04-19 17:00:00 15.4 19 Este 31 Este 0 1010.5 1.2 86
2019-04-19 16:00:00 14.7 22 Este 37 Este 0 1010.3 1.3 88
2019-04-19 15:00:00 14.6 21 Este 39 Nordeste 0 1009.8 1.1 90
2019-04-19 14:00:00 13.5 25 Este 36 Este 0 1009.3 1.3 92
2019-04-19 13:00:00 13 22 Este 43 Este 0 1009 1.6 93
2019-04-19 12:00:00 12.9 30 Este 45 Este 0 1008.7 1.5 93
2019-04-19 11:00:00 12.6 30 Este 45 Nordeste 0 1008 0.9 93
2019-04-19 10:00:00 12.3 34 Nordeste 51 Nordeste 0 1007.4 0.8 93
2019-04-19 09:00:00 12.3 20 Nordeste 50 Nordeste 0.6 1007.2 0.2 93
2019-04-19 08:00:00 12.3 19 Nordeste 46 Este 1.2 1007.1 0.4 93
2019-04-19 07:00:00 12.4 23 Nordeste 50 Nordeste 1.8 1006.6 0.1 93
2019-04-19 06:00:00 12.6 21 Nordeste 39 Nordeste 1.2 1007 0.2 92
2019-04-19 05:00:00 12.6 18 Nordeste 38 Nordeste 0 1006.7 -0.3 91
2019-04-19 04:00:00 12.6 18 Nordeste 40 Nordeste 0 1006.5 -1.1 91
2019-04-19 03:00:00 12.3 21 Nordeste 31 Nordeste 0 1006.8 -0.5 91
2019-04-19 02:00:00 12.1 17 Nordeste 30 Nordeste 0 1007 -0.3 90
2019-04-19 01:00:00 12.3 16 Este 27 Este 0 1007.6 1.1 86
2019-04-19 00:00:00 12.3 16 Este 31 Este 0 1007.3 1.5 87
2019-04-18 23:00:00 12.7 21 Este 37 Este 0 1007.3 2.2 87
2019-04-18 22:00:00 12.9 21 Este 32 Sudeste 0 1006.5 1.9 85
2019-04-18 21:00:00 13 20 Este 37 Este 0 1005.8 1.6 83
2019-04-18 20:00:00 13.3 23 Este 35 Este 0 1005.1 1.3 80
2019-04-18 19:00:00 13.9 20 Este 30 Este 0 1004.6 0.7 80
2019-04-18 18:00:00 14.7 21 Este 28 Este 0 1004.2 0.3 77
2019-04-18 17:00:00 15.6 14 Este 24 Este 0 1003.8 0.1 75
2019-04-18 16:00:00 16.6 12 Este 24 Sudeste 0 1003.9 0.5 73
2019-04-18 15:00:00 15 17 Sudeste 25 Sudeste 0 1003.9 1.1 76
2019-04-18 14:00:00 16 16 Este 24 Sudeste 0 1003.7 1.2 75
2019-04-18 13:00:00 14.8 10 Este 20 Este 0 1003.4 1.4 75
2019-04-18 12:00:00 15.2 8 Este 14 Este 0 1002.8 1.7 72
2019-04-18 11:00:00 14.5 9 Este 14 Este 0 1002.5 2.6 83
2019-04-18 10:00:00 12.6 5 Nordeste 9 Este 0 1002 2.5 80
2019-04-18 09:00:00 12 2 Sudoeste 10 Sudoeste 0 1001.1 1.9 82
2019-04-18 08:00:00 11.5 7 Oeste 13 Oeste 0 999.9 0.9 83
2019-04-18 07:00:00 11.3 5 Nordeste 17 Sudeste 0 999.5 0.5 87
2019-04-18 06:00:00 11.2 12 Sudeste 18 Sudeste 0.2 999.2 0 87
2019-04-18 05:00:00 11.2 9 Este 15 Este 0.4 999 0.2 87
2019-04-18 04:00:00 11.4 10 Este 14 Sudeste 0.2 999 0.2 87
2019-04-18 03:00:00 11.7 7 Oeste 13 Oeste 0 999.2 0.6 86
2019-04-18 02:00:00 11.6 3 Sudoeste 10 Sur 0.2 998.8 0.2 85
2019-04-18 01:00:00 11.5 8 Sudoeste 12 Sur 1 998.8 0.7 86
2019-04-18 00:00:00 11.5 6 Sudeste 14 Sudoeste 1 998.6 1.7 87
2019-04-17 23:00:00 11.4 11 Sudeste 19 Sudeste 2 998.6 1.9 87
2019-04-17 22:00:00 11.6 10 Sudeste 19 Sudeste 3 998.1 1.8 85
2019-04-17 21:00:00 12.2 18 Sudeste 30 Sudeste 3 996.9 1.4 84
2019-04-17 20:00:00 12.6 11 Este 17 Este 1.8 996.7 1.7 82
2019-04-17 19:00:00 12.8 14 Este 24 Sudeste 0.6 996.3 1.5 78
2019-04-17 18:00:00 13 18 Sudeste 41 Sudeste 0.4 995.5 0.8 76
2019-04-17 17:00:00 13.3 32 Sudeste 41 Sudeste 0 995 0.1 76
2019-04-17 16:00:00 14.3 10 Nordeste 14 Este 0 994.8 -0.5 66
2019-04-17 15:00:00 14.4 5 Norte 15 Noroeste 0 994.7 -0.6 64
2019-04-17 14:00:00 14.4 10 Noroeste 21 Noroeste 0 994.9 -0.3 66
2019-04-17 13:00:00 15.7 10 Oeste 22 Oeste 0 995.3 0.2 62
2019-04-17 12:00:00 15.3 15 Oeste 24 Oeste 0 995.3 0.3 64
2019-04-17 11:00:00 15.3 21 Oeste 31 Oeste 0 995.2 0.5 61
2019-04-17 10:00:00 14.3 22 Oeste 28 Oeste 0 995.1 1 62
2019-04-17 09:00:00 13.1 17 Oeste 23 Oeste 0 995 0.8 73
2019-04-17 08:00:00 12.6 15 Oeste 31 Sudeste 0 994.7 -0.2 75
2019-04-17 07:00:00 12.7 24 Sudeste 33 Sudeste 0 994.1 -1.7 74
2019-04-17 06:00:00 12.4 23 Sudeste 40 Sudeste 0 994.2 -2.6 77
2019-04-17 05:00:00 12 26 Sudeste 32 Sudeste 0 994.9 -3 81
2019-04-17 04:00:00 11.8 18 Sudeste 34 Sudeste 0 995.8 -3.1 81
2019-04-17 03:00:00 11.7 28 Sudeste 42 Sudeste 0 996.8 -3 87
2019-04-17 02:00:00 12.2 33 Sudeste 48 Sudeste 0 997.9 -2.8 86
2019-04-17 01:00:00 12.4 37 Sudeste 55 Sudeste 0 998.9 -1.9 84
2019-04-17 00:00:00 12.6 35 Sudeste 49 Sudeste 0 999.8 -1.4 83
2019-04-16 23:00:00 12.6 34 Sudeste 56 Este 0 1000.7 -0.9 81
2019-04-16 22:00:00 12.8 37 Sudeste 54 Sudeste 0 1000.8 -1.2 78
2019-04-16 21:00:00 12.9 34 Sudeste 51 Sudeste 0 1001.2 -1.4 75
2019-04-16 20:00:00 13.5 33 Sudeste 53 Sudeste 0 1001.6 -1.5 70
2019-04-16 19:00:00 14.1 37 Sudeste 52 Sudeste 0 1002 -1.9 69
2019-04-16 18:00:00 14.3 38 Sudeste 50 Sudeste 0 1002.6 -2 67
2019-04-16 17:00:00 14.9 35 Sudeste 46 Este 0 1003.1 -2.1 67
2019-04-16 16:00:00 14.8 32 Sudeste 47 Este 0 1003.9 -1.4 68
2019-04-16 15:00:00 15.5 23 Este 37 Este 0 1004.6 -1.5 66
2019-04-16 14:00:00 15.4 17 Este 33 Este 0 1005.2 -0.7 67
2019-04-16 13:00:00 15.5 22 Este 30 Este 0 1005.3 -0.9 64
2019-04-16 12:00:00 14.8 17 Este 26 Este 0 1006.1 0 60
2019-04-16 11:00:00 14.5 15 Sur 25 Sur 0 1005.9 0.2 57
2019-04-16 10:00:00 12.8 13 Sudoeste 34 Sudoeste 0 1006.2 0.4 63
2019-04-16 09:00:00 11.4 12 Sudoeste 23 Sur 0 1006.1 0 66
2019-04-16 08:00:00 10.8 18 Sudoeste 27 Sur 0 1005.7 -0.6 66
2019-04-16 07:00:00 10.2 3 Sur 24 Sudoeste 0 1005.8 -0.4 71
2019-04-16 06:00:00 10.4 16 Sudoeste 33 Sudoeste 0 1006.1 -0.6 71
2019-04-16 05:00:00 10.3 10 Sudoeste 26 Sudoeste 0 1006.3 -0.6 71
2019-04-16 04:00:00 10.1 12 Sudoeste 24 Sudoeste 0 1006.2 -0.4 73
2019-04-16 03:00:00 10.7 18 Sudoeste 27 Sudoeste 0 1006.7 0.2 71
2019-04-16 02:00:00 10.9 13 Sudoeste 27 Sudoeste 0 1006.9 0.9 73
2019-04-16 01:00:00 11.5 16 Sudoeste 26 Sudoeste 0 1006.6 1.4 75
2019-04-16 00:00:00 11.7 15 Sudoeste 24 Sudoeste 0 1006.5 2.6 74
2019-04-15 23:00:00 11.7 18 Sudoeste 31 Oeste 0 1006 2.9 73
2019-04-15 22:00:00 12.1 28 Oeste 46 Oeste 0 1005.2 3.2 74
2019-04-15 21:00:00 12.5 38 Oeste 55 Oeste 0 1003.9 3 71
2019-04-15 20:00:00 13.4 46 Oeste 68 Oeste 0 1003.1 2.9 69
2019-04-15 19:00:00 13.8 55 Oeste 70 Oeste 0 1002 2.5 70
2019-04-15 18:00:00 14.3 57 Oeste 68 Oeste 0 1000.9 2.1 70
2019-04-15 17:00:00 12.8 57 Oeste 75 Oeste 0 1000.2 2.3 76
2019-04-15 16:00:00 12.7 57 Oeste 66 Oeste 0 999.5 3 78
2019-04-15 15:00:00 13.2 49 Oeste 62 Oeste 0 998.8 1.9 77
2019-04-15 14:00:00 13.9 48 Oeste 80 Oeste 0 997.9 1.7 76
2019-04-15 13:00:00 14.8 64 Oeste 89 Oeste 0 996.5 0.3 70
2019-04-15 12:00:00 14.2 44 Oeste 72 Oeste 0.6 996.9 1.3 83
2019-04-15 11:00:00 15 24 Oeste 56 Oeste 0 996.2 0.4 76
2019-04-15 10:00:00 15.3 24 Sudoeste 56 Sudoeste 0 996.2 0.4 78
2019-04-15 09:00:00 15.2 38 Sudoeste 55 Sudoeste 4.8 995.6 -0.9 85
2019-04-15 08:00:00 14.8 20 Oeste 29 Noroeste 0 995.8 -1.5 83
2019-04-15 07:00:00 17.2 7 Sur 12 Sudeste 0 995.8 -2.5 71
2019-04-15 06:00:00 17.1 9 Sur 20 Sudeste 0 996.5 -3.1 72
2019-04-15 05:00:00 17 12 Sudeste 19 Sudeste 0 997.3 -3.1 73
2019-04-15 04:00:00 17 12 Sudeste 14 Sudeste 0 998.3 -2.8 74
2019-04-15 03:00:00 16.2 7 Sur 11 Sur 0 999.6 -2.2 77
2019-04-15 02:00:00 15.6 6 Sur 15 Sudeste 0 1000.4 -1.8 76
2019-04-15 01:00:00 15.9 11 Este 22 Sudeste 0 1001.1 -1.1 74
2019-04-15 00:00:00 16.5 14 Sudeste 21 Sudeste 0 1001.8 -0.2 71
2019-04-14 23:00:00 17.7 18 Sudeste 33 Sudeste 0 1002.2 0.3 66
2019-04-14 22:00:00 17.6 22 Sudeste 44 Sudeste 0 1002.2 0.3 67
2019-04-14 21:00:00 16.9 23 Sudeste 43 Sudeste 0 1002 -0.4 69
2019-04-14 20:00:00 17.3 23 Sudeste 40 Sudeste 0 1001.9 -1.4 68
2019-04-14 19:00:00 17 24 Sudeste 37 Este 0.2 1001.9 -2.1 71
2019-04-14 18:00:00 17.3 25 Sudeste 34 Este 0 1002.4 -1.9 68
2019-04-14 17:00:00 18.4 19 Este 26 Sudeste 0 1003.3 -1.2 68
2019-04-14 16:00:00 18.2 15 Este 20 Sudeste 0 1004 -0.8 69
2019-04-14 15:00:00 20.4 5 Nordeste 31 Oeste 0 1004.3 -0.6 62
2019-04-14 14:00:00 20.5 17 Oeste 24 Oeste 0 1004.5 -0.2 64
2019-04-14 13:00:00 19.5 14 Oeste 22 Oeste 0 1004.8 0.4 70
2019-04-14 12:00:00 17.9 15 Oeste 18 Oeste 0 1004.9 0.4 72
2019-04-14 11:00:00 17.6 9 Sudoeste 21 Oeste 0 1004.7 0.5 72
2019-04-14 10:00:00 17 8 Oeste 16 Oeste 0 1004.4 0.1 72
2019-04-14 09:00:00 16.8 3 Oeste 19 Oeste 0 1004.5 -0.1 74
2019-04-14 08:00:00 15.8 10 Sudoeste 22 Sudoeste 0 1004.2 -0.7 77
2019-04-14 07:00:00 15.7 11 Sudoeste 15 Oeste 0 1004.3 -0.6 77
2019-04-14 06:00:00 15.2 14 Oeste 23 Sudoeste 0 1004.6 -0.6 79
2019-04-14 05:00:00 15 18 Oeste 28 Oeste 0 1004.9 -0.9 78
2019-04-14 04:00:00 15.5 23 Oeste 39 Oeste 0 1004.9 -1.4 76
2019-04-14 03:00:00 15.4 21 Oeste 31 Oeste 0 1005.2 -1.3 75
2019-04-14 02:00:00 15.8 23 Sudoeste 29 Sudoeste 0 1005.8 -1.1 73
2019-04-14 01:00:00 15.5 11 Oeste 19 Oeste 0 1006.3 -0.5 74
2019-04-14 00:00:00 16 13 Sudoeste 24 Sudoeste 0 1006.5 0 72
2019-04-13 23:00:00 15.9 9 Oeste 21 Oeste 0 1006.9 0.8 70
2019-04-13 22:00:00 16.1 8 Sur 16 Sur 0 1006.8 0.8 63
2019-04-13 21:00:00 15.4 6 Sudoeste 18 Sudeste 0 1006.5 0.3 50
2019-04-13 20:00:00 15.8 13 Sudeste 23 Sudeste 0 1006.1 0 45
2019-04-13 19:00:00 15.8 14 Sudeste 19 Sudeste 0 1006 -0.4 49
2019-04-13 18:00:00 14.6 18 Sudeste 24 Sudeste 0 1006.2 -0.3 66
2019-04-13 17:00:00 16.3 19 Sudeste 25 Sudeste 0 1006.1 -0.8 50
2019-04-13 16:00:00 16.2 17 Sudeste 23 Sudeste 0 1006.4 -0.5 55
2019-04-13 15:00:00 15.9 18 Este 26 Este 0 1006.5 -0.7 62
2019-04-13 14:00:00 17.8 12 Este 16 Este 0 1006.9 -0.1 55
2019-04-13 13:00:00 16.3 14 Este 18 Este 0 1006.9 -0.2 67
2019-04-13 12:00:00 17 4 Nordeste 9 Norte 0 1007.2 0 48
2019-04-13 11:00:00 16.5 5 Sudoeste 10 Sur 0 1007 0.2 57
2019-04-13 10:00:00 15.6 3 Oeste 7 Sur 0 1007.1 0.2 55
2019-04-13 09:00:00 13.5 8 Sudoeste 11 Sudoeste 0 1007.2 0.1 61
2019-04-13 08:00:00 12.4 8 Sudoeste 10 Sudoeste 0 1006.8 -0.5 62
2019-04-13 07:00:00 11.6 7 Sudoeste 14 Sur 0 1006.9 -0.6 66
2019-04-13 06:00:00 12.6 5 Sur 17 Sudeste 0 1007.1 -1.1 61
2019-04-13 05:00:00 12.8 7 Sudoeste 9 Sudoeste 0 1007.3 -1.2 52
2019-04-13 04:00:00 12.3 3 Sudoeste 8 Sur 0 1007.5 -0.8 55
2019-04-13 03:00:00 11.8 6 Sur 13 Sur 0 1008.2 -0.6 60
2019-04-13 02:00:00 11.7 6 Sur 12 Sur 0 1008.5 -0.1 70
2019-04-13 01:00:00 11.7 8 Sudoeste 21 Sur 0 1008.3 0 75
2019-04-13 00:00:00 11.4 12 Sudeste 17 Sudeste 0 1008.8 0.9 80
2019-04-12 23:00:00 11.6 16 Sudeste 29 Sudeste 0 1008.6 0.7 81
2019-04-12 22:00:00 11.6 24 Sudeste 37 Sudeste 0 1008.3 0.4 81
2019-04-12 21:00:00 11.8 25 Sudeste 37 Sudeste 0 1007.9 -0.2 79
2019-04-12 20:00:00 12.3 27 Sudeste 38 Sudeste 0 1007.9 -0.5 76
2019-04-12 19:00:00 13 29 Sudeste 39 Este 0 1007.9 -1 74
2019-04-12 18:00:00 13.3 30 Este 39 Sudeste 0 1008.1 -1.3 71
2019-04-12 17:00:00 13.7 30 Este 43 Sudeste 0 1008.4 -1.3 69
2019-04-12 16:00:00 13.5 32 Este 41 Sudeste 0 1008.9 -1 71
2019-04-12 15:00:00 13.3 31 Este 45 Este 0 1009.4 -0.5 68
2019-04-12 14:00:00 13.6 27 Este 41 Este 0 1009.7 -0.3 66
2019-04-12 13:00:00 12.9 32 Este 44 Este 0 1009.9 0 68
2019-04-12 12:00:00 12.6 30 Sudeste 39 Sudeste 0 1009.9 -0.4 71
2019-04-12 11:00:00 12.3 25 Sudeste 35 Sudeste 0 1010 -0.1 71
2019-04-12 10:00:00 11.4 22 Sudeste 33 Sudeste 0 1009.9 -0.1 72
2019-04-12 09:00:00 9.8 17 Sudeste 25 Sudeste 0 1010.3 0.1 76
2019-04-12 08:00:00 8.8 15 Sudeste 20 Sudeste 0 1010.1 -0.4 79
2019-04-12 07:00:00 9.3 13 Sudeste 20 Sudeste 0 1010 -0.8 81
2019-04-12 06:00:00 9.3 15 Sudeste 22 Sudeste 0 1010.2 -1.2 81
2019-04-12 05:00:00 9.4 15 Sudeste 23 Sudeste 0 1010.5 -1.3 81
2019-04-12 04:00:00 9.7 14 Sudeste 20 Sudeste 0 1010.8 -1 81
2019-04-12 03:00:00 10 14 Sudeste 22 Sudeste 0 1011.4 -0.5 80
2019-04-12 02:00:00 10.6 15 Sudeste 30 Sudeste 0 1011.8 -0.2 78
2019-04-12 01:00:00 10.9 19 Este 30 Este 0 1011.8 -0.2 77
2019-04-12 00:00:00 11 19 Este 29 Este 0 1011.9 0.2 78
2019-04-11 23:00:00 11 18 Este 28 Nordeste 0 1012 0 78
2019-04-11 22:00:00 11.1 18 Este 33 Este 0 1012 0.1 76
2019-04-11 21:00:00 11.4 20 Este 29 Este 0 1011.7 -0.2 76
2019-04-11 20:00:00 12.5 16 Este 22 Este 0 1012 0.1 71
2019-04-11 19:00:00 13.1 13 Este 23 Este 0 1011.9 -0.3 72
2019-04-11 18:00:00 13.3 16 Este 23 Este 0 1011.9 -0.6 70
2019-04-11 17:00:00 13.6 11 Nordeste 24 Nordeste 0 1011.9 -0.7 68
2019-04-11 16:00:00 13.7 10 Nordeste 23 Nordeste 0 1012.2 -0.7 64
2019-04-11 15:00:00 14 9 Norte 17 Norte 0 1012.5 0 63
2019-04-11 14:00:00 15.6 4 Noroeste 15 Noroeste 0 1012.6 0.5 64
2019-04-11 13:00:00 14.7 4 Oeste 13 Oeste 0 1012.9 0.8 67
2019-04-11 12:00:00 14.3 5 Oeste 9 Oeste 0 1012.5 0.8 68
2019-04-11 11:00:00 12.2 2 Oeste 8 Sudoeste 0 1012.1 0.8 76
2019-04-11 10:00:00 11.1 8 Oeste 15 Oeste 0 1012.1 0.9 81
2019-04-11 09:00:00 10.1 4 Oeste 8 Oeste 0 1011.7 0.3 83
2019-04-11 08:00:00 9.4 7 Oeste 10 Sudoeste 0 1011.3 -0.1 83
2019-04-11 07:00:00 9.3 7 Oeste 10 Oeste 0 1011.2 0 84
2019-04-11 06:00:00 9.5 5 Oeste 8 Oeste 0 1011.4 0 84
2019-04-11 05:00:00 9.5 5 Sudoeste 9 Oeste 0 1011.4 -0.1 84
2019-04-11 04:00:00 9.7 6 Oeste 8 Oeste 0 1011.2 -0.2 82
2019-04-11 03:00:00 10 4 Oeste 11 Oeste 0 1011.4 -0.1 82
2019-04-11 02:00:00 10.5 4 Noroeste 11 Norte 0 1011.5 0 80
2019-04-11 01:00:00 10.5 3 Sudoeste 7 Norte 0 1011.4 0.3 79
2019-04-11 00:00:00 10.4 0 Calma 10 Nordeste 0 1011.5 1.4 78
2019-04-10 23:00:00 10.9 4 Este 14 Norte 0 1011.5 1.7 77
2019-04-10 22:00:00 11.2 10 Norte 15 Norte 0 1011.1 1.5 78
2019-04-10 21:00:00 11.3 9 Norte 18 Norte 0 1010.1 0.9 77
2019-04-10 20:00:00 12.5 12 Norte 19 Norte 0 1009.8 0.9 74
2019-04-10 19:00:00 13 13 Norte 24 Norte 0 1009.6 0.8 72
2019-04-10 18:00:00 13.2 14 Norte 24 Nordeste 0 1009.2 0.6 73
2019-04-10 17:00:00 12.7 13 Norte 24 Nordeste 0 1008.9 0.7 76
2019-04-10 16:00:00 14.5 11 Norte 23 Norte 0 1008.8 0.8 70
2019-04-10 15:00:00 15.3 8 Norte 22 Norte 0 1008.6 1.1 70
2019-04-10 14:00:00 14.2 13 Norte 26 Norte 0 1008.2 1.4 75
2019-04-10 13:00:00 12.9 18 Norte 30 Norte 0 1008 2 76
2019-04-10 12:00:00 12.1 17 Norte 39 Norte 0 1007.5 2.2 79
2019-04-10 11:00:00 11.7 17 Noroeste 33 Norte 0 1006.8 2.6 82
2019-04-10 10:00:00 11.2 17 Noroeste 39 Norte 0 1006 2.7 81
2019-04-10 09:00:00 10.9 23 Noroeste 46 Noroeste 0 1005.3 2.7 85
2019-04-10 08:00:00 10.9 24 Noroeste 54 Noroeste 0 1004.2 2.5 86
2019-04-10 07:00:00 10.7 24 Noroeste 49 Noroeste 0.2 1003.3 2.2 88
2019-04-10 06:00:00 10.4 24 Noroeste 62 Noroeste 0 1002.6 1.7 89
2019-04-10 05:00:00 10.7 51 Noroeste 74 Oeste 0.6 1001.7 1.2 89
2019-04-10 04:00:00 10.1 58 Oeste 90 Noroeste 1.4 1001.1 1.1 88
2019-04-10 03:00:00 10.5 51 Oeste -- -- 5.8 1000.9 0.9 87
2019-04-10 02:00:00 11.1 67 Oeste 85 Oeste 0.4 1000.5 0.3 81
2019-04-10 01:00:00 11.2 68 Oeste 82 Oeste 0 1000 0.1 78
2019-04-10 00:00:00 11.2 64 Oeste 77 Oeste 0 1000 0.8 79
2019-04-09 23:00:00 11 55 Oeste 69 Oeste 0 1000.2 2.3 78
2019-04-09 22:00:00 10.7 53 Oeste 66 Oeste 0 999.9 3.5 77
2019-04-09 21:00:00 10.9 58 Oeste 79 Oeste 0 999.2 2.6 80
2019-04-09 20:00:00 11.1 63 Oeste 87 Oeste 0.2 997.9 1.3 81
2019-04-09 19:00:00 11.6 74 Oeste 91 Oeste 0.6 996.4 -0.6 82
2019-04-09 18:00:00 11.9 62 Oeste 82 Oeste 0 996.6 0 75
2019-04-09 17:00:00 11.6 55 Oeste 80 Oeste 0.2 996.6 -0.9 76
2019-04-09 16:00:00 12.8 57 Oeste 84 Oeste 0 997 -0.2 76
2019-04-09 15:00:00 11.1 61 Oeste 94 Oeste 0.2 996.6 -0.9 72
2019-04-09 14:00:00 12.9 54 Oeste 74 Sudoeste 0 997.5 -0.1 73
2019-04-09 13:00:00 12.6 58 Oeste 71 Sudoeste 0 997.2 -0.5 72
2019-04-09 12:00:00 10.3 57 Oeste 72 Oeste 0.4 997.5 -0.1 82
2019-04-09 11:00:00 9.6 55 Sudoeste 87 Sudoeste 0.4 997.6 0.6 83
2019-04-09 10:00:00 8.7 37 Oeste 51 Sudoeste 0.6 997.7 1 85
2019-04-09 09:00:00 8.8 44 Oeste 60 Sudoeste 0.2 997.6 1.1 82
2019-04-09 08:00:00 8.7 49 Oeste 64 Oeste 0 997 0.4 81
2019-04-09 07:00:00 9.4 33 Oeste 54 Sudoeste 0.2 996.7 -0.1 82
2019-04-09 06:00:00 9.5 35 Sudoeste 48 Sudoeste 0 996.5 -0.6 80
2019-04-09 05:00:00 9.6 24 Sudoeste 36 Sudoeste 1.4 996.6 0.1 83
2019-04-09 04:00:00 9.8 11 Sudoeste 23 Oeste 0.4 996.8 -0.2 78
2019-04-09 03:00:00 10 26 Oeste 50 Oeste 0.4 997.1 0 78
2019-04-09 02:00:00 10.5 31 Sudoeste 45 Sudoeste 0 996.5 -0.8 69
2019-04-09 01:00:00 9.9 26 Sudoeste 50 Sudoeste 0 997 -0.6 69
2019-04-09 00:00:00 9.7 28 Sudoeste 57 Sudoeste 0 997.1 -0.2 70
2019-04-08 23:00:00 10.2 34 Sudoeste 64 Oeste 0.6 997.3 0.2 74
2019-04-08 22:00:00 11.2 34 Sudoeste 56 Sudoeste 0.2 997.6 0.7 68
2019-04-08 21:00:00 12.6 26 Sudoeste 64 Sudoeste 0 997.3 0 57
2019-04-08 20:00:00 13.3 39 Sudoeste 77 Sudoeste 0 997.1 -0.6 51
2019-04-08 19:00:00 15.2 56 Oeste 79 Oeste 0 996.9 -0.9 44
2019-04-08 18:00:00 15.8 44 Oeste 86 Sudoeste 0 997.3 -1.3 50
2019-04-08 17:00:00 15.6 43 Oeste 115 Sudoeste 0 997.7 -0.6 48
2019-04-08 16:00:00 15.6 49 Sudoeste 72 Sudoeste 0 997.8 -1.3 46
2019-04-08 15:00:00 15.9 16 Oeste 89 Sudoeste 0.2 998.6 -0.5 58
2019-04-08 14:00:00 14.1 47 Oeste 82 Sudoeste 0 998.3 -0.7 52
2019-04-08 13:00:00 14.3 44 Oeste 60 Oeste 0 999.1 0.2 56
2019-04-08 12:00:00 13.4 44 Oeste 58 Oeste 0 999.1 0.4 62
2019-04-08 11:00:00 12.3 37 Oeste 50 Oeste 0 999 0.6 69
2019-04-08 10:00:00 10.6 35 Oeste 46 Sudoeste 0 998.9 1.1 74
2019-04-08 09:00:00 9.6 33 Sudoeste 46 Oeste 0 998.7 1.3 76
2019-04-08 08:00:00 9.4 33 Sudoeste 57 Sudoeste 0 998.4 1 79
2019-04-08 07:00:00 9.5 40 Oeste 54 Sudoeste 0 997.8 0.7 83
2019-04-08 06:00:00 10 41 Oeste 51 Sudoeste 0 997.4 0.9 84
2019-04-08 05:00:00 10.3 33 Oeste 47 Oeste 0.2 997.4 1.5 85
2019-04-08 04:00:00 10.5 35 Oeste 45 Oeste 1.4 997.1 1.6 84
2019-04-08 03:00:00 10.9 35 Oeste 46 Sudoeste 0.2 996.5 1.7 84
2019-04-08 02:00:00 11 36 Oeste 48 Oeste 0 995.9 1.3 85
2019-04-08 01:00:00 11 32 Oeste 39 Oeste 1.8 995.5 1 86
2019-04-08 00:00:00 11.3 31 Oeste 42 Oeste 0.8 994.8 0.3 81
2019-04-07 23:00:00 11.5 21 Sudoeste 36 Sudoeste 0 994.6 -0.2 74
2019-04-07 22:00:00 10.8 11 Sur 38 Sur 0.2 994.5 -0.2 74
2019-04-07 21:00:00 11 21 Sur 44 Sur 0 994.5 -1.4 71
2019-04-07 20:00:00 10.5 13 Sudoeste 52 Sudeste 0 994.8 -1.9 74
2019-04-07 19:00:00 10 27 Sudeste 42 Sudeste 0 994.7 -1.9 73
2019-04-07 18:00:00 10.1 27 Sudeste 47 Sur 1.2 995.9 -0.9 73
2019-04-07 17:00:00 11.8 26 Sudoeste 43 Sudoeste 0 996.7 -0.2 66
2019-04-07 16:00:00 14.1 15 Sudoeste 26 Sudoeste 0 996.6 -0.7 55
2019-04-07 15:00:00 14.1 6 Oeste 37 Oeste 0 996.8 -0.6 51
2019-04-07 14:00:00 14.4 27 Oeste 43 Oeste 0 996.9 -0.5 52
2019-04-07 13:00:00 13.5 31 Oeste 48 Oeste 0 997.3 -0.1 57
2019-04-07 12:00:00 12.3 31 Oeste 43 Sudoeste 0 997.4 0.6 64
2019-04-07 11:00:00 11.3 28 Oeste 43 Sudoeste 0 997.4 1 68
2019-04-07 10:00:00 10.4 31 Oeste 52 Oeste 0 997.4 1.7 71
2019-04-07 09:00:00 8.6 39 Oeste 53 Sudoeste 0 996.8 1.6 75
2019-04-07 08:00:00 7.9 38 Oeste 62 Sudoeste 0 996.4 1.5 77
2019-04-07 07:00:00 7.7 44 Sudoeste 60 Sudoeste 0 995.7 1.2 78
2019-04-07 06:00:00 7.7 42 Oeste 57 Sudoeste 0 995.2 1.1 78
2019-04-07 05:00:00 7.9 40 Oeste 51 Oeste 0 994.9 0.6 78
2019-04-07 04:00:00 8 37 Oeste 50 Sudoeste 0 994.5 0.5 77
2019-04-07 03:00:00 8 41 Oeste 58 Oeste 0 994.1 0.7 81
2019-04-07 02:00:00 8.4 28 Oeste 45 Sudoeste 0 994.3 0.9 81
2019-04-07 01:00:00 8.3 33 Oeste 47 Oeste 0 994 1.5 81
2019-04-07 00:00:00 8.3 39 Oeste 49 Sudoeste 0 993.4 1.6 82
2019-04-06 23:00:00 8.4 42 Oeste 54 Oeste 0.2 993.4 2.3 81
2019-04-06 22:00:00 8.2 35 Noroeste -- -- 3 992.5 2 78
2019-04-06 21:00:00 9.9 32 Noroeste 68 Oeste 0.2 991.8 2.3 78
2019-04-06 20:00:00 10.3 42 Oeste 64 Oeste 0 991.1 2.4 76
2019-04-06 19:00:00 9.6 50 Oeste 84 Noroeste 0 990.5 1.9 79
2019-04-06 18:00:00 9.5 55 Oeste 79 Noroeste 0.4 989.5 1.3 79
2019-04-06 17:00:00 9.9 39 Oeste 53 Oeste 0 988.7 1.4 76
2019-04-06 16:00:00 10.6 46 Oeste 57 Oeste 0 988.6 2 71
2019-04-06 15:00:00 11.6 33 Noroeste 46 Noroeste 0 988.2 2.6 71
2019-04-06 14:00:00 10.2 36 Noroeste 54 Noroeste 0 987.3 2.4 74
2019-04-06 13:00:00 8.9 28 Noroeste 51 Noroeste 0.2 986.6 2.6 82
2019-04-06 12:00:00 8 41 Oeste 60 Sudoeste 2 985.6 1.9 85
2019-04-06 11:00:00 7.1 37 Sudoeste 55 Sudoeste 2 984.9 2 83
2019-04-06 10:00:00 7.2 37 Sudoeste 53 Sudoeste 0.2 984 0.8 78
2019-04-06 09:00:00 6.8 29 Sudoeste 59 Sudoeste 0 983.7 0.2 75
2019-04-06 08:00:00 6.1 35 Sur 66 Sur 0 982.9 -1.9 75
2019-04-06 07:00:00 6.4 32 Sudoeste 57 Sudoeste 0 983.2 -1.7 75
2019-04-06 06:00:00 6.2 23 Sudoeste 42 Sur 0.2 983.5 -2.8 79
2019-04-06 05:00:00 6.5 13 Sudoeste 55 Sudoeste 0.2 984.8 -1 81
2019-04-06 04:00:00 6.6 41 Sudoeste 60 Sudoeste 1 984.9 -1.9 82
2019-04-06 03:00:00 7 31 Oeste 55 Sudoeste 0.4 986.3 -0.5 82
2019-04-06 02:00:00 6.9 47 Sudoeste 67 Oeste 0.4 985.8 -1.2 81
2019-04-06 01:00:00 6.9 28 Oeste 72 Sudoeste 0.2 986.8 -0.1 81
2019-04-06 00:00:00 7.4 65 Oeste 80 Oeste 0.2 986.8 0.2 79
2019-04-05 23:00:00 8.4 41 Sudoeste 56 Sudoeste 0 987 0.4 76
2019-04-05 22:00:00 8.1 42 Sudoeste 61 Oeste 0 986.9 0.3 78
2019-04-05 21:00:00 8.2 37 Sudoeste 50 Sudoeste 0 986.6 0.5 79
2019-04-05 20:00:00 8.8 35 Sudoeste 53 Sudoeste 0.4 986.6 0.8 81
2019-04-05 19:00:00 8.5 38 Sudoeste 55 Sudoeste 0.6 986.6 1.3 78
2019-04-05 18:00:00 10.4 25 Oeste 57 Oeste 0.6 986.1 1.6 78
2019-04-05 17:00:00 8.7 32 Sudoeste 60 Oeste 0 985.8 2.1 74
2019-04-05 16:00:00 11.1 40 Oeste 55 Oeste 0 985.3 2.5 69
2019-04-05 15:00:00 9.3 49 Oeste 80 Oeste 0.2 984.5 0.8 74
2019-04-05 14:00:00 9.2 55 Oeste 85 Sudoeste 0 983.7 -0.4 75
2019-04-05 13:00:00 9.6 63 Oeste 85 Oeste 0 982.8 -0.7 62
2019-04-05 12:00:00 11.3 48 Oeste 81 Oeste 0 983.7 0.3 60
2019-04-05 11:00:00 7.9 18 Sudoeste 53 Sudoeste 0 984.1 0.2 65
2019-04-05 10:00:00 7.8 27 Sudoeste 60 Sudoeste 0 983.5 0.4 63
2019-04-05 09:00:00 7.1 31 Sudoeste 53 Sudoeste 0 983.4 0 67
2019-04-05 08:00:00 6.6 21 Sudoeste 54 Oeste 0 983.9 0.4 69
2019-04-05 07:00:00 6.8 41 Sudoeste 55 Sudoeste 0 983.1 -0.6 72
2019-04-05 06:00:00 6.7 30 Sudoeste 73 Oeste 0 983.4 -0.7 77
2019-04-05 05:00:00 7.4 45 Oeste 60 Oeste 0 983.5 -0.8 78
2019-04-05 04:00:00 7.3 35 Sudoeste 48 Oeste 0 983.7 -0.9 79
2019-04-05 03:00:00 7.3 32 Sudoeste 54 Sudoeste 0 984.1 -0.4 78
2019-04-05 02:00:00 7.3 31 Sudoeste 64 Oeste 0 984.3 -0.5 76
2019-04-05 01:00:00 7.6 21 Sudoeste 48 Sudoeste 0 984.6 0.1 76
2019-04-05 00:00:00 7.8 38 Sudoeste 51 Sudoeste 0 984.5 0 77
2019-04-04 23:00:00 8.3 37 Sudoeste 52 Oeste 0 984.8 0.1 81
2019-04-04 22:00:00 8.4 31 Oeste 54 Sudoeste 0.2 984.5 -0.4 83
2019-04-04 21:00:00 9 36 Oeste 50 Sudoeste 0.2 984.5 -1 83
2019-04-04 20:00:00 9.1 42 Sudoeste 59 Oeste 0 984.7 -0.7 81
2019-04-04 19:00:00 9.4 39 Sudoeste 62 Oeste 0 984.9 -0.6 79
2019-04-04 18:00:00 9.7 48 Oeste 90 Oeste 0.2 985.5 -0.5 81
2019-04-04 17:00:00 9.9 61 Oeste 86 Oeste 0 985.4 -1.3 80
2019-04-04 16:00:00 11.1 67 Oeste 98 Sudoeste 0.2 985.5 -2.3 70
2019-04-04 15:00:00 11.6 69 Oeste 100 Oeste 0 986 -3.3 67
2019-04-04 14:00:00 11.5 68 Oeste 94 Oeste 0 986.7 -3.9 63
2019-04-04 13:00:00 11 67 Oeste 90 Sudoeste 0 987.8 -3.9 64
2019-04-04 12:00:00 10.7 52 Oeste 69 Sudoeste 0 989.3 -3.2 66
2019-04-04 11:00:00 9.4 53 Oeste 68 Oeste 0 990.6 -2.7 72
2019-04-04 10:00:00 8.2 40 Oeste 59 Oeste 0 991.7 -2.1 79
2019-04-04 09:00:00 7.3 44 Oeste 55 Sudoeste 0 992.5 -1.8 81
2019-04-04 08:00:00 6.9 31 Oeste 46 Oeste 0.2 993.3 -1.8 82
2019-04-04 07:00:00 6.7 30 Sudoeste 60 Oeste 1 993.8 -2 82
2019-04-04 06:00:00 7.1 26 Oeste 56 Sudoeste 1.4 994.3 -2.3 80
2019-04-04 05:00:00 7.4 26 Oeste 52 Oeste 0.4 995.1 -2.2 78
2019-04-04 04:00:00 8.3 35 Oeste 58 Noroeste 0 995.8 -2.3 71
2019-04-04 03:00:00 8.6 43 Oeste 59 Noroeste 0 996.6 -1.8 68
2019-04-04 02:00:00 9.1 39 Oeste 52 Noroeste 0 997.3 -1.6 66
2019-04-04 01:00:00 9.3 36 Noroeste 62 Noroeste 0 998.1 -1.3 65
2019-04-04 00:00:00 9.1 45 Oeste 61 Noroeste 0 998.4 -1.3 64
2019-04-03 23:00:00 8.6 40 Noroeste 67 Noroeste 0 998.9 -0.7 60
2019-04-03 22:00:00 7.9 32 Oeste 48 Oeste 0 999.4 -0.5 76
2019-04-03 21:00:00 7.4 28 Oeste 71 Norte 0.4 999.7 -0.5 73
2019-04-03 20:00:00 9.5 22 Noroeste 65 Norte 0 999.6 -1 67
2019-04-03 19:00:00 10.1 21 Noroeste 60 Noroeste 0 999.9 -0.7 66
2019-04-03 18:00:00 9.5 27 Noroeste 64 Noroeste 0 1000.2 -0.7 65
2019-04-03 17:00:00 9.2 16 Noroeste 80 Oeste 1.8 1000.6 -1 80
2019-04-03 16:00:00 10.8 44 Noroeste 68 Noroeste 0.2 1000.6 -1.7 60
2019-04-03 15:00:00 11 28 Noroeste 56 Noroeste 0 1000.9 -1.3 58
2019-04-03 14:00:00 10.4 34 Oeste 55 Norte 0 1001.6 -0.2 66
2019-04-03 13:00:00 8.2 25 Noroeste 84 Noroeste 0.6 1002.3 0.4 70
2019-04-03 12:00:00 10.5 25 Noroeste 70 Noroeste 0 1002.2 0.1 60
2019-04-03 11:00:00 9 43 Noroeste 73 Noroeste 0 1001.8 -0.3 69
2019-04-03 10:00:00 8.4 33 Noroeste 67 Oeste 0.2 1001.9 -0.6 72
2019-04-03 09:00:00 8 48 Oeste 71 Norte 0.4 1002.1 -0.9 74
2019-04-03 08:00:00 8 31 Noroeste 79 Noroeste 0.4 1002.1 -1.6 70
2019-04-03 07:00:00 8.9 21 Noroeste 54 Noroeste 0.2 1002.5 -1.4 72
2019-04-03 06:00:00 7.8 32 Noroeste 69 Noroeste 0.2 1003 -2 73
2019-04-03 05:00:00 8.9 18 Noroeste 53 Noroeste 0.4 1003.7 -1.8 73
2019-04-03 04:00:00 9.6 38 Noroeste 63 Noroeste 0.2 1003.9 -1.9 68
2019-04-03 03:00:00 9.7 22 Noroeste 54 Noroeste 0 1005 -1.1 66
2019-04-03 02:00:00 9.2 28 Oeste 54 Noroeste 0 1005.5 -1 73
2019-04-03 01:00:00 10.2 39 Noroeste 52 Noroeste 0 1005.8 -0.7 60
2019-04-03 00:00:00 10.1 33 Noroeste 47 Noroeste 0 1006.1 -0.4 69
2019-04-02 23:00:00 10.5 33 Noroeste 46 Noroeste 0 1006.5 -0.2 66
2019-04-02 22:00:00 10.1 29 Noroeste 41 Noroeste 0 1006.5 -0.4 64
2019-04-02 21:00:00 10.6 27 Noroeste 42 Noroeste 0 1006.5 -0.2 66
2019-04-02 20:00:00 11 16 Noroeste 37 Noroeste 0 1006.7 -0.4 62
2019-04-02 19:00:00 11.8 21 Noroeste 43 Oeste 0 1006.9 -0.3 66
2019-04-02 18:00:00 11.7 29 Noroeste 51 Noroeste 0 1006.7 -1 68
2019-04-02 17:00:00 12.9 27 Noroeste 51 Noroeste 0 1007.1 -1.1 60
2019-04-02 16:00:00 13.2 27 Noroeste 41 Noroeste 0 1007.2 -1.2 66
2019-04-02 15:00:00 13.5 24 Noroeste 33 Noroeste 0 1007.7 -0.5 63
2019-04-02 14:00:00 12.6 15 Noroeste 36 Norte 0 1008.2 0 69
2019-04-02 13:00:00 12.1 12 Noroeste 31 Norte 0 1008.4 0.4 72
2019-04-02 12:00:00 12 10 Noroeste 24 Noroeste 0 1008.2 0.4 74
2019-04-02 11:00:00 12 7 Noroeste 18 Noroeste 0 1008.2 0.8 71
2019-04-02 10:00:00 11.6 8 Noroeste 25 Noroeste 0 1008 0.6 75
2019-04-02 09:00:00 11.4 7 Noroeste 24 Noroeste 0 1007.8 0.5 76
2019-04-02 08:00:00 11.4 13 Noroeste 26 Noroeste 0 1007.4 0.4 77
2019-04-02 07:00:00 11.4 10 Noroeste 23 Norte 0 1007.4 0.3 76
2019-04-02 06:00:00 11.3 11 Noroeste 22 Noroeste 0 1007.3 0.1 75
2019-04-02 05:00:00 11.3 7 Noroeste 19 Noroeste 0 1007 -0.3 78
2019-04-02 04:00:00 11.3 6 Noroeste 22 Norte 0 1007.1 -0.2 79
2019-04-02 03:00:00 11.1 12 Norte 24 Norte 0 1007.2 0.2 80
2019-04-02 02:00:00 11.1 13 Norte 36 Norte 0 1007.3 0.5 84
2019-04-02 01:00:00 12.1 12 Norte 21 Norte 0 1007.3 1.2 83
2019-04-02 00:00:00 12 7 Norte 22 Norte 0 1007 1.8 86
2019-04-01 23:00:00 12.5 11 Norte 18 Nordeste 0 1006.8 2 86
2019-04-01 22:00:00 12.5 6 Nordeste 14 Este 0 1006.1 1.8 84
2019-04-01 21:00:00 12.5 9 Este 15 Este 0 1005.2 0.9 83
2019-04-01 20:00:00 13.5 8 Este 17 Este 0 1004.8 0.4 81
2019-04-01 19:00:00 14.5 14 Este 20 Este 0 1004.3 -0.2 78
2019-04-01 18:00:00 15.1 15 Este 22 Este 0 1004.3 -0.3 76
2019-04-01 17:00:00 15.4 17 Este 22 Este 0 1004.4 -0.4 75
2019-04-01 16:00:00 15.5 17 Este 26 Este 0 1004.5 -0.6 76
2019-04-01 15:00:00 14.4 19 Este 28 Este 0 1004.6 -0.4 79
2019-04-01 14:00:00 15.1 17 Este 26 Este 0 1004.8 0.3 78
2019-04-01 13:00:00 15.4 15 Este 23 Sudeste 0 1005.1 1 77
2019-04-01 12:00:00 14.1 19 Este 27 Este 0 1005 1.4 81
2019-04-01 11:00:00 13.8 16 Este 28 Este 0 1004.5 1.5 83
2019-04-01 10:00:00 12.5 18 Este 29 Sudeste 0 1004.1 1.6 85
2019-04-01 09:00:00 11.4 21 Sudeste 32 Sudeste 0 1003.6 1 87
2019-04-01 08:00:00 10.8 23 Sudeste 34 Este 0 1003 0.6 88
2019-04-01 07:00:00 10.9 28 Sudeste 34 Sudeste 0 1002.5 -0.2 89
2019-04-01 06:00:00 10.8 23 Sudeste 37 Sudeste 0 1002.6 -0.3 89
2019-04-01 05:00:00 11.3 30 Sudeste 37 Sudeste 0 1002.4 -0.6 90
2019-04-01 04:00:00 11.2 20 Este 26 Este 0 1002.7 -0.6 90
2019-04-01 03:00:00 11.7 19 Este 28 Este 0 1002.9 -0.7 90
2019-04-01 02:00:00 11.9 16 Este 31 Este 0 1003 -0.5 89
2019-04-01 01:00:00 12.1 19 Este 28 Este 0 1003.3 0 88
2019-04-01 00:00:00 12.2 21 Este 35 Este 0 1003.6 1 87
2019-03-31 23:00:00 12.3 18 Este 30 Este 0 1003.5 1 86
2019-03-31 22:00:00 12.3 18 Este 34 Este 0 1003.3 0.9 86
2019-03-31 21:00:00 12.3 19 Este 35 Este 0 1002.6 0.3 83
2019-03-31 20:00:00 12.7 23 Este 37 Este 0 1002.5 -0.2 83
2019-03-31 19:00:00 13.3 26 Este 40 Este 0 1002.4 -0.5 79
2019-03-31 18:00:00 13.9 27 Este 40 Este 0 1002.3 -1.1 76
2019-03-31 17:00:00 14.7 25 Este 46 Sudeste 0 1002.7 -0.9 74
2019-03-31 16:00:00 14.7 22 Este 37 Este 0 1002.9 -1.1 73
2019-03-31 15:00:00 15.2 23 Este 42 Este 0 1003.4 -0.8 72
2019-03-31 14:00:00 14.6 29 Este 41 Este 0 1003.6 -0.6 72
2019-03-31 13:00:00 14.4 24 Este 40 Este 0 1004 0 73
2019-03-31 12:00:00 13.7 22 Este 31 Este 0 1004.2 0.4 79
2019-03-31 11:00:00 11.9 18 Este 21 Sudeste 0 1004.2 0.6 83
2019-03-31 10:00:00 11.7 11 Este 19 Este 0 1004 0.2 85
2019-03-31 09:00:00 11.6 10 Este 22 Sudeste 0 1003.8 -0.5 85
2019-03-31 08:00:00 11.4 14 Sudeste 22 Sudeste 0 1003.6 -1.2 86
2019-03-31 07:00:00 11.4 14 Sudeste 19 Sudeste 0 1003.8 -1.5 87
2019-03-31 06:00:00 11.4 12 Sudeste 22 Este 0 1004.3 -1.4 87
2019-03-31 05:00:00 11.3 12 Este 23 Este 0 1004.8 -1.2 87
2019-03-31 03:00:00 11.2 16 Este 26 Sudeste 0 1005.7 -0.5 88
2019-03-31 01:00:00 11.3 20 Este 27 Sudeste 0 1006 -0.5 89
2019-03-31 00:00:00 11 13 Sudeste 31 Sudeste 0 1006.2 -0.1 88
2019-03-30 23:00:00 11.1 22 Sudeste 33 Sudeste 0 1006.2 0.3 87
2019-03-30 22:00:00 11.4 23 Este 31 Sudeste 0 1006.5 0.4 87
2019-03-30 21:00:00 11.5 26 Sudeste 30 Sudeste 0 1006.3 0.3 86
2019-03-30 20:00:00 11.6 22 Sudeste 28 Sudeste 0 1005.9 0 83
2019-03-30 19:00:00 12.3 23 Sudeste 30 Este 0 1006.1 -0.1 80
2019-03-30 18:00:00 12.7 24 Sudeste 35 Sudeste 0 1006 -0.5 77
2019-03-30 17:00:00 12.9 28 Sudeste 37 Sudeste 0 1005.9 -1.1 76
2019-03-30 16:00:00 14.1 21 Este 30 Este 0 1006.2 -1.1 73
2019-03-30 15:00:00 14.7 17 Este 22 Este 0 1006.5 -1.2 72
2019-03-30 14:00:00 14.1 13 Este 18 Este 0 1007 -0.7 75
2019-03-30 13:00:00 13.8 6 Este 15 Sudeste 0 1007.3 -0.4 73
2019-03-30 12:00:00 14 13 Este 21 Sudeste 0 1007.7 0.1 76
2019-03-30 11:00:00 13.1 12 Este 18 Este 0 1007.7 0.4 78
2019-03-30 10:00:00 11.9 2 Oeste 18 Sudeste 0 1007.7 0.7 82
2019-03-30 09:00:00 10.3 13 Sudeste 21 Sudeste 0 1007.6 0.6 86
2019-03-30 08:00:00 9.7 14 Sudeste 31 Sudeste 0 1007.3 0.1 87
2019-03-30 07:00:00 9.9 19 Sudeste 30 Sudeste 0 1007 -0.5 87
2019-03-30 06:00:00 10.1 19 Sudeste 30 Sudeste 0 1007 -0.7 86
2019-03-30 05:00:00 10 21 Sudeste 32 Sudeste 0 1007.2 -0.9 85
2019-03-30 04:00:00 9.7 21 Sudeste 27 Sudeste 0 1007.5 -1.1 84
2019-03-30 03:00:00 10 18 Sudeste 25 Sudeste 0 1007.7 -1 83
2019-03-30 02:00:00 10 17 Sudeste 27 Sudeste 0 1008.1 -0.8 84
2019-03-30 01:00:00 10.3 21 Sudeste 34 Sudeste 0 1008.6 -0.5 83
2019-03-30 00:00:00 10.5 21 Sudeste 36 Sudeste 0 1008.7 -0.5 82
2019-03-29 23:00:00 10.8 23 Sudeste 37 Sudeste 0 1008.9 0 81
2019-03-29 22:00:00 11.2 28 Sudeste 41 Sudeste 0 1009.1 0.2 80
2019-03-29 21:00:00 11.5 29 Sudeste 41 Sudeste 0 1009.2 0.2 79
2019-03-29 20:00:00 11.7 33 Este 44 Este 0 1008.9 -0.3 78
2019-03-29 19:00:00 12.1 33 Este 43 Sudeste 0 1008.9 -1 75
2019-03-29 18:00:00 13.1 28 Este 43 Este 0 1009 -1.4 74
2019-03-29 17:00:00 13.2 32 Este 44 Este 0 1009.2 -1.6 72
2019-03-29 16:00:00 13.6 28 Este 52 Este 0 1009.9 -1.5 70
2019-03-29 15:00:00 13.8 31 Este 49 Este 0 1010.4 -1.3 70
2019-03-29 14:00:00 13.4 33 Este 48 Este 0 1010.8 -1.5 70
2019-03-29 13:00:00 12.7 37 Sudeste 51 Sudeste 0 1011.4 -1.3 71
2019-03-29 12:00:00 12.5 39 Sudeste 52 Sudeste 0 1011.7 -1.2 70
2019-03-29 11:00:00 12.2 35 Sudeste 45 Sudeste 0 1012.3 -0.5 72
2019-03-29 10:00:00 11.7 33 Sudeste 45 Sudeste 0 1012.7 0.1 74
2019-03-29 09:00:00 10.8 28 Sudeste 45 Sudeste 0 1012.9 0.1 78
2019-03-29 08:00:00 10.7 35 Sudeste 56 Sudeste 0 1012.8 -0.2 78
2019-03-29 07:00:00 10.7 41 Sudeste 58 Sudeste 0 1012.6 -0.8 79
2019-03-29 06:00:00 10.9 40 Sudeste 61 Sudeste 0 1012.8 -0.9 80
2019-03-29 05:00:00 10.8 45 Este 63 Sudeste 0 1013 -1.4 77
2019-03-29 04:00:00 10.9 48 Este 65 Este 0 1013.4 -1.4 78
2019-03-29 03:00:00 11 50 Este 66 Sudeste 0 1013.7 -1.6 77
2019-03-29 02:00:00 11.1 41 Este 62 Sudeste 0 1014.4 -1.2 78
2019-03-29 01:00:00 11.2 48 Este 66 Este 0 1014.8 -0.9 77
2019-03-29 00:00:00 11.1 38 Este 67 Este 0 1015.3 -0.5 77
2019-03-28 23:00:00 11.1 43 Este 71 Este 0 1015.6 -0.1 77
2019-03-28 22:00:00 11.2 44 Este 69 Este 0 1015.7 0.5 77
2019-03-28 21:00:00 11.2 48 Este 74 Este 0 1015.8 0.4 76
2019-03-28 20:00:00 11.3 45 Este 74 Este 0 1015.7 -0.2 76
2019-03-28 19:00:00 11.7 48 Este 70 Este 0 1015.2 -1.5 74
2019-03-28 18:00:00 12.2 47 Este 70 Este 0 1015.4 -2 72
2019-03-28 17:00:00 12.8 40 Este 67 Este 0 1015.9 -1.9 69
2019-03-28 16:00:00 13.4 42 Este 65 Este 0 1016.7 -1.6 67
2019-03-28 15:00:00 13.7 41 Este 63 Este 0 1017.4 -1.2 67
2019-03-28 14:00:00 13.6 40 Este -- -- -- 1017.8 -1.1 68
2019-03-28 13:00:00 13.7 40 Este 60 Este 0 1018.3 -0.5 68
2019-03-28 12:00:00 13.5 35 Este 58 Sudeste 0 1018.6 0 70
2019-03-28 11:00:00 12.5 44 Este 60 Sudeste 0 1018.9 0.2 73
2019-03-28 10:00:00 12 45 Este 64 Sudeste 0 1018.8 0.3 73
2019-03-28 09:00:00 11.5 44 Este 62 Sudeste 0 1018.6 0.3 74
2019-03-28 08:00:00 10.9 42 Este 64 Sudeste 0 1018.7 0.5 75
2019-03-28 07:00:00 10.5 45 Este 61 Sudeste 0 1018.5 0.5 77
2019-03-28 06:00:00 10.6 46 Este 66 Sudeste 0 1018.3 0.1 75
2019-03-28 05:00:00 10.5 46 Sudeste 66 Sudeste 0 1018.2 -0.1 74
2019-03-28 04:00:00 10.5 52 Este 71 Sudeste 0 1018 -0.5 74
2019-03-28 03:00:00 10.7 50 Sudeste 69 Este 0 1018.2 -0.4 75
2019-03-28 02:00:00 10.8 46 Este 71 Este 0 1018.3 -0.6 74
2019-03-28 01:00:00 10.8 46 Este 75 Sudeste 0 1018.5 -0.3 72
2019-03-28 00:00:00 10.9 49 Este 69 Este 0 1018.6 0 73
2019-03-27 23:00:00 10.8 44 Este 71 Este 0 1018.9 0.8 73
2019-03-27 22:00:00 10.9 45 Este 70 Este 0 1018.8 1 73
2019-03-27 21:00:00 10.9 44 Este 69 Este 0 1018.6 1.4 72
2019-03-27 20:00:00 10.9 43 Este 66 Sudeste 0 1018.1 0.8 70
2019-03-27 19:00:00 11.5 44 Este 68 Este 0 1017.8 0.5 69
2019-03-27 18:00:00 11.9 45 Este 71 Este 0 1017.2 0 68
2019-03-27 17:00:00 12.7 38 Este 70 Este 0 1017.3 0 65
2019-03-27 16:00:00 13 40 Este 68 Este 0 1017.3 0.2 64
2019-03-27 15:00:00 13.2 44 Este 79 Este 0 1017.2 0.2 62
2019-03-27 14:00:00 13.2 43 Este 70 Este 0 1017.3 0.4 64
2019-03-27 13:00:00 13.1 50 Este 75 Este 0 1017.1 0.5 67
2019-03-27 12:00:00 13.3 44 Este 66 Este 0 1017 1 67
2019-03-27 11:00:00 12.8 41 Este 65 Sudeste 0 1016.9 1.5 69
2019-03-27 10:00:00 12.5 38 Este 65 Este 0 1016.6 1.7 70
2019-03-27 09:00:00 11.6 47 Sudeste 67 Sudeste 0 1016 1.2 73
2019-03-27 08:00:00 11 43 Sudeste 68 Sudeste 0 1015.4 0.5 76
2019-03-27 07:00:00 10.9 48 Sudeste 67 Sudeste 0 1014.9 0 76
2019-03-27 06:00:00 11.1 50 Sudeste 76 Sudeste 0 1014.8 -0.3 75
2019-03-27 05:00:00 11.3 45 Este 73 Sudeste 0 1014.9 -0.4 72
2019-03-27 04:00:00 11.1 48 Este 90 Este 0 1014.9 -0.3 71
2019-03-27 03:00:00 11 52 Este 78 Este 0 1015.1 0.4 71
2019-03-27 02:00:00 10.8 47 Este 78 Este 0 1015.3 0.7 71
2019-03-27 01:00:00 10.8 46 Este 86 Este 0 1015.2 0.6 73
2019-03-27 00:00:00 10.4 48 Este 76 Este 0 1014.7 0.4 73